createdAt,value
2017-09-22T00:02:15.376Z,10.23
2017-09-22T00:04:42.883Z,8.95
2017-09-22T00:07:10.403Z,10.90
2017-09-22T00:09:37.898Z,9.65
2017-09-22T00:12:05.420Z,9.10
2017-09-22T00:14:32.927Z,9.63
2017-09-22T00:17:00.434Z,8.70
2017-09-22T00:19:27.955Z,8.95
2017-09-22T00:21:55.458Z,8.48
2017-09-22T00:24:22.979Z,9.45
2017-09-22T00:26:51.258Z,9.50
2017-09-22T00:29:19.545Z,8.82
2017-09-22T00:31:47.047Z,9.48
2017-09-22T00:34:14.602Z,8.32
2017-09-22T00:36:42.106Z,8.93
2017-09-22T00:39:09.622Z,8.88
2017-09-22T00:41:37.135Z,8.68
2017-09-22T00:44:05.427Z,8.38
2017-09-22T00:46:32.930Z,8.20
2017-09-22T00:49:00.454Z,8.70
2017-09-22T00:51:27.954Z,8.68
2017-09-22T00:53:55.475Z,8.32
2017-09-22T00:56:22.983Z,8.30
2017-09-22T00:58:50.506Z,8.65
2017-09-22T01:01:18.018Z,9.73
2017-09-22T01:03:46.333Z,9.38
2017-09-22T01:06:13.840Z,8.23
2017-09-22T01:08:41.362Z,8.40
2017-09-22T01:11:08.871Z,8.77
2017-09-22T01:13:37.161Z,8.00
2017-09-22T01:16:05.461Z,8.70
2017-09-22T01:18:32.960Z,8.13
2017-09-22T01:21:00.504Z,8.73
2017-09-22T01:23:28.010Z,8.80
2017-09-22T01:25:56.311Z,7.80
2017-09-22T01:28:23.814Z,8.50
2017-09-22T01:30:51.331Z,7.93
2017-09-22T01:33:18.844Z,7.90
2017-09-22T01:35:46.371Z,8.93
2017-09-22T01:38:13.870Z,7.40
2017-09-22T01:40:41.386Z,7.10
2017-09-22T01:43:08.890Z,7.20
2017-09-22T01:45:36.402Z,8.00
2017-09-22T01:48:03.906Z,6.80
2017-09-22T01:50:31.425Z,7.15
2017-09-22T01:52:58.927Z,8.13
2017-09-22T01:55:26.442Z,7.82
2017-09-22T01:57:53.946Z,7.32
2017-09-22T02:00:22.239Z,7.55
2017-09-22T02:02:49.738Z,7.37
2017-09-22T02:05:17.265Z,8.20
2017-09-22T02:07:44.781Z,7.40
2017-09-22T02:10:12.310Z,8.35
2017-09-22T02:12:39.833Z,7.62
2017-09-22T02:15:08.114Z,8.45
2017-09-22T02:17:36.402Z,8.55
2017-09-22T02:20:03.912Z,7.82
2017-09-22T02:22:33.434Z,7.72
2017-09-22T02:25:00.933Z,7.80
2017-09-22T02:27:28.440Z,8.45
2017-09-22T02:29:55.974Z,7.62
2017-09-22T02:32:23.466Z,7.50
2017-09-22T02:34:50.982Z,7.78
2017-09-22T02:37:18.487Z,8.18
2017-09-22T02:39:46.782Z,7.45
2017-09-22T02:42:15.043Z,7.15
2017-09-22T02:44:43.353Z,8.00
2017-09-22T02:47:10.860Z,7.53
2017-09-22T02:49:38.375Z,7.00
2017-09-22T02:52:05.879Z,8.23
2017-09-22T02:54:33.391Z,8.38
2017-09-22T02:57:00.886Z,8.55
2017-09-22T02:59:28.407Z,7.00
2017-09-22T03:01:55.917Z,7.93
2017-09-22T03:04:23.446Z,7.22
2017-09-22T03:06:51.719Z,7.05
2017-09-22T03:09:19.223Z,7.70
2017-09-22T03:11:47.522Z,7.70
2017-09-22T03:14:15.782Z,9.18
2017-09-22T03:16:43.294Z,7.87
2017-09-22T03:19:10.789Z,7.57
2017-09-22T03:21:38.306Z,8.35
2017-09-22T03:24:05.814Z,7.40
2017-09-22T03:26:34.097Z,7.68
2017-09-22T03:29:02.364Z,8.50
2017-09-22T03:31:29.879Z,7.50
2017-09-22T03:33:57.373Z,8.52
2017-09-22T03:36:24.898Z,8.25
2017-09-22T03:38:52.398Z,7.12
2017-09-22T03:41:19.919Z,7.68
2017-09-22T03:43:47.455Z,7.93
2017-09-22T03:46:14.979Z,7.35
2017-09-22T03:48:42.495Z,7.53
2017-09-22T03:51:10.026Z,8.07
2017-09-22T03:53:37.542Z,7.28
2017-09-22T03:56:05.118Z,8.25
2017-09-22T03:58:32.611Z,7.82
2017-09-22T04:01:00.134Z,8.95
2017-09-22T04:03:27.646Z,7.47
2017-09-22T04:05:55.184Z,8.07
2017-09-22T04:08:22.699Z,8.43
2017-09-22T04:10:50.228Z,7.43
2017-09-22T04:13:17.733Z,8.98
2017-09-22T04:15:45.248Z,7.30
2017-09-22T04:18:12.748Z,8.40
2017-09-22T04:20:40.270Z,8.13
2017-09-22T04:23:07.782Z,9.75
2017-09-22T04:25:36.073Z,9.13
2017-09-22T04:28:03.589Z,7.93
2017-09-22T04:30:31.113Z,8.27
2017-09-22T04:32:58.617Z,8.57
2017-09-22T04:35:26.135Z,8.40
2017-09-22T04:37:53.623Z,8.63
2017-09-22T04:40:21.145Z,9.40
2017-09-22T04:42:48.642Z,9.30
2017-09-22T04:45:16.162Z,7.97
2017-09-22T04:47:43.670Z,8.65
2017-09-22T04:50:11.196Z,8.13
2017-09-22T04:52:38.690Z,10.10
2017-09-22T04:55:06.214Z,7.97
2017-09-22T04:57:33.719Z,8.20
2017-09-22T05:00:01.984Z,7.93
2017-09-22T05:02:29.499Z,7.60
2017-09-22T05:04:56.998Z,7.07
2017-09-22T05:07:24.521Z,8.93
2017-09-22T05:09:52.021Z,7.60
2017-09-22T05:12:19.539Z,8.60
2017-09-22T05:14:47.038Z,10.75
2017-09-22T05:17:14.562Z,13.55
2017-09-22T05:19:42.086Z,14.15
2017-09-22T05:22:10.379Z,12.27
2017-09-22T05:24:37.890Z,12.13
2017-09-22T05:27:06.178Z,11.18
2017-09-22T05:29:34.446Z,12.00
2017-09-22T05:32:01.973Z,11.63
2017-09-22T05:34:29.482Z,11.77
2017-09-22T05:36:57.772Z,10.73
2017-09-22T05:39:25.270Z,10.45
2017-09-22T05:41:52.787Z,9.88
2017-09-22T05:44:20.290Z,9.75
2017-09-22T05:46:47.826Z,9.80
2017-09-22T05:49:15.331Z,8.80
2017-09-22T05:51:42.851Z,7.90
2017-09-22T05:54:10.352Z,9.40
2017-09-22T05:56:38.650Z,8.65
2017-09-22T05:59:06.169Z,9.05
2017-09-22T06:01:33.698Z,7.87
2017-09-22T06:04:01.202Z,9.10
2017-09-22T06:06:28.727Z,8.50
2017-09-22T06:08:56.254Z,8.85
2017-09-22T06:11:23.779Z,8.70
2017-09-22T06:13:51.278Z,8.55
2017-09-22T06:16:18.794Z,9.00
2017-09-22T06:18:46.286Z,8.70
2017-09-22T06:21:14.258Z,8.95
2017-09-22T06:23:41.758Z,7.55
2017-09-22T06:26:09.275Z,9.25
2017-09-22T06:28:36.778Z,8.05
2017-09-22T06:31:04.303Z,11.23
2017-09-22T06:33:31.809Z,7.85
2017-09-22T06:35:59.335Z,8.55
2017-09-22T06:38:26.837Z,8.40
2017-09-22T06:40:54.364Z,8.23
2017-09-22T06:43:21.862Z,8.35
2017-09-22T06:45:49.374Z,7.57
2017-09-22T06:48:16.873Z,8.30
2017-09-22T06:50:44.397Z,7.45
2017-09-22T06:53:12.677Z,7.65
2017-09-22T06:55:40.203Z,7.35
2017-09-22T06:58:07.703Z,8.38
2017-09-22T07:00:35.217Z,6.93
2017-09-22T07:03:02.747Z,8.32
2017-09-22T07:05:30.259Z,7.87
2017-09-22T07:07:57.794Z,8.15
2017-09-22T07:10:25.298Z,7.97
2017-09-22T07:12:52.818Z,7.37
2017-09-22T07:15:20.341Z,7.35
2017-09-22T07:17:47.855Z,8.25
2017-09-22T07:20:15.353Z,6.55
2017-09-22T07:22:43.350Z,7.82
2017-09-22T07:25:11.627Z,7.50
2017-09-22T07:27:39.914Z,7.43
2017-09-22T07:30:07.425Z,8.00
2017-09-22T07:32:34.954Z,6.70
2017-09-22T07:35:02.458Z,7.22
2017-09-22T07:37:29.970Z,7.03
2017-09-22T07:39:57.498Z,6.97
2017-09-22T07:42:25.793Z,6.57
2017-09-22T07:44:53.315Z,6.72
2017-09-22T07:47:20.842Z,5.95
2017-09-22T07:49:48.365Z,7.10
2017-09-22T07:52:15.923Z,7.10
2017-09-22T07:54:43.439Z,8.23
2017-09-22T07:57:10.967Z,7.97
2017-09-22T07:59:38.471Z,7.03
2017-09-22T08:02:05.989Z,6.90
2017-09-22T08:04:33.506Z,7.87
2017-09-22T08:07:01.035Z,7.40
2017-09-22T08:09:28.574Z,17.42
2017-09-22T08:11:56.094Z,9.43
2017-09-22T08:14:23.634Z,7.90
2017-09-22T08:16:51.158Z,8.63
2017-09-22T08:19:18.676Z,7.45
2017-09-22T08:21:46.190Z,6.80
2017-09-22T08:24:13.718Z,5.82
2017-09-22T08:26:41.214Z,5.68
2017-09-22T08:29:08.731Z,4.60
2017-09-22T08:31:37.154Z,5.05
2017-09-22T08:34:04.704Z,4.97
2017-09-22T08:36:32.222Z,5.68
2017-09-22T08:39:00.661Z,5.62
2017-09-22T08:41:28.166Z,5.65
2017-09-22T08:43:55.732Z,4.37
2017-09-22T08:46:23.231Z,4.53
2017-09-22T08:48:50.746Z,5.32
2017-09-22T08:51:18.249Z,5.10
2017-09-22T08:53:45.777Z,5.00
2017-09-22T08:56:13.274Z,5.68
2017-09-22T08:58:40.787Z,5.70
2017-09-22T09:01:08.311Z,5.20
2017-09-22T09:03:36.586Z,4.82
2017-09-22T09:06:04.879Z,5.03
2017-09-22T09:08:32.374Z,4.37
2017-09-22T09:10:59.922Z,4.45
2017-09-22T09:13:27.413Z,4.30
2017-09-22T09:15:54.950Z,4.45
2017-09-22T09:18:22.463Z,4.05
2017-09-22T09:20:50.750Z,5.00
2017-09-22T09:23:18.255Z,5.65
2017-09-22T09:25:45.783Z,5.18
2017-09-22T09:28:13.288Z,5.07
2017-09-22T09:30:40.806Z,5.22
2017-09-22T09:33:08.314Z,4.90
2017-09-22T09:35:35.858Z,5.07
2017-09-22T09:38:03.379Z,5.82
2017-09-22T09:40:30.918Z,4.95
2017-09-22T09:42:59.193Z,5.12
2017-09-22T09:45:27.474Z,5.07
2017-09-22T09:47:54.969Z,5.32
2017-09-22T09:50:22.486Z,4.90
2017-09-22T09:52:50.749Z,6.05
2017-09-22T09:55:19.065Z,5.72
2017-09-22T09:57:46.578Z,5.70
2017-09-22T10:00:14.083Z,5.40
2017-09-22T10:02:41.636Z,5.28
2017-09-22T10:05:10.070Z,5.87
2017-09-22T10:07:37.590Z,6.50
2017-09-22T10:10:05.091Z,6.45
2017-09-22T10:12:32.606Z,6.40
2017-09-22T10:15:00.106Z,7.15
2017-09-22T10:17:27.629Z,7.10
2017-09-22T10:19:55.123Z,6.68
2017-09-22T10:22:22.649Z,7.45
2017-09-22T10:24:50.151Z,6.12
2017-09-22T10:27:17.670Z,6.68
2017-09-22T10:29:45.170Z,6.22
2017-09-22T10:32:12.699Z,6.55
2017-09-22T10:34:40.202Z,6.30
2017-09-22T10:37:08.488Z,6.60
2017-09-22T10:39:35.998Z,6.70
2017-09-22T10:42:03.526Z,7.28
2017-09-22T10:44:31.801Z,6.87
2017-09-22T10:46:59.334Z,7.35
2017-09-22T10:49:27.603Z,6.97
2017-09-22T10:51:55.139Z,7.53
2017-09-22T10:54:22.637Z,8.57
2017-09-22T10:56:50.906Z,7.18
2017-09-22T10:59:19.186Z,7.87
2017-09-22T11:01:47.450Z,8.10
2017-09-22T11:04:15.739Z,8.50
2017-09-22T11:06:44.015Z,8.90
2017-09-22T11:09:11.530Z,8.23
2017-09-22T11:11:39.031Z,9.80
2017-09-22T11:14:06.548Z,9.00
2017-09-22T11:16:34.820Z,8.63
2017-09-22T11:19:02.344Z,9.25
2017-09-22T11:21:29.850Z,9.73
2017-09-22T11:23:57.392Z,9.50
2017-09-22T11:26:25.666Z,9.75
2017-09-22T11:28:53.966Z,10.43
2017-09-22T11:31:20.973Z,10.98
2017-09-22T11:33:47.995Z,11.10
2017-09-22T11:36:15.499Z,11.70
2017-09-22T11:38:43.785Z,9.93
2017-09-22T11:41:12.062Z,10.35
2017-09-22T11:43:39.598Z,9.93
2017-09-22T11:46:07.119Z,9.93
2017-09-22T11:48:34.645Z,9.63
2017-09-22T11:51:02.163Z,8.60
2017-09-22T11:53:30.766Z,8.95
2017-09-22T11:55:58.309Z,9.02
2017-09-22T11:58:25.814Z,9.57
2017-09-22T12:00:53.335Z,8.65
2017-09-22T12:03:20.843Z,7.93
2017-09-22T12:05:48.362Z,8.20
2017-09-22T12:08:15.877Z,8.73
2017-09-22T12:10:44.174Z,9.20
2017-09-22T12:13:11.689Z,8.13
2017-09-22T12:15:39.216Z,8.77
2017-09-22T12:18:06.717Z,8.25
2017-09-22T12:20:34.238Z,8.82
2017-09-22T12:23:01.743Z,9.43
2017-09-22T12:25:29.264Z,9.90
2017-09-22T12:27:56.769Z,9.40
2017-09-22T12:30:25.064Z,9.50
2017-09-22T12:32:52.574Z,9.52
2017-09-22T12:35:20.086Z,9.65
2017-09-22T12:37:47.594Z,9.75
2017-09-22T12:40:15.122Z,10.27
2017-09-22T12:42:42.626Z,10.77
2017-09-22T12:45:10.155Z,11.00
2017-09-22T12:47:37.662Z,10.82
2017-09-22T12:50:05.186Z,11.30
2017-09-22T12:52:32.703Z,10.95
2017-09-22T12:55:00.227Z,11.35
2017-09-22T12:57:27.754Z,10.85
2017-09-22T12:59:55.331Z,9.82
2017-09-22T13:02:22.862Z,9.70
2017-09-22T13:04:50.382Z,11.63
2017-09-22T13:07:17.923Z,9.90
2017-09-22T13:09:45.433Z,9.55
2017-09-22T13:12:12.957Z,10.93
2017-09-22T13:14:41.326Z,10.40
2017-09-22T13:17:08.849Z,11.05
2017-09-22T13:19:36.366Z,11.20
2017-09-22T13:22:03.902Z,10.63
2017-09-22T13:24:32.191Z,10.80
2017-09-22T13:27:00.477Z,10.32
2017-09-22T13:29:27.990Z,11.60
2017-09-22T13:31:55.512Z,10.55
2017-09-22T13:34:23.039Z,11.02
2017-09-22T13:36:51.341Z,12.10
2017-09-22T13:39:19.754Z,10.85
2017-09-22T13:41:47.280Z,9.52
2017-09-22T13:44:14.788Z,11.65
2017-09-22T13:46:42.317Z,10.55
2017-09-22T13:49:09.827Z,11.18
2017-09-22T13:51:37.362Z,11.00
2017-09-22T13:54:04.881Z,10.00
2017-09-22T13:56:32.410Z,12.37
2017-09-22T13:58:59.939Z,11.02
2017-09-22T14:01:27.454Z,11.10
2017-09-22T14:03:54.977Z,12.43
2017-09-22T14:06:22.499Z,10.75
2017-09-22T14:08:50.042Z,11.48
2017-09-22T14:11:17.568Z,10.73
2017-09-22T14:13:45.094Z,10.50
2017-09-22T14:16:12.616Z,11.00
2017-09-22T14:18:40.145Z,9.00
2017-09-22T14:21:08.422Z,10.50
2017-09-22T14:23:36.722Z,11.60
2017-09-22T14:26:04.223Z,9.90
2017-09-22T14:28:31.734Z,9.98
2017-09-22T14:31:00.014Z,8.93
2017-09-22T14:33:27.545Z,11.25
2017-09-22T14:35:55.069Z,9.77
2017-09-22T14:38:22.590Z,8.90
2017-09-22T14:40:50.094Z,10.60
2017-09-22T14:43:17.618Z,9.60
2017-09-22T14:45:45.138Z,10.20
2017-09-22T14:48:12.698Z,9.90
2017-09-22T14:50:40.237Z,9.65
2017-09-22T14:53:07.740Z,9.60
2017-09-22T14:55:36.613Z,10.10
2017-09-22T14:58:04.162Z,10.00
2017-09-22T15:00:31.691Z,10.07
2017-09-22T15:02:59.214Z,11.32
2017-09-22T15:05:26.752Z,10.98
2017-09-22T15:07:54.254Z,9.63
2017-09-22T15:10:21.790Z,11.10
2017-09-22T15:12:50.070Z,10.70
2017-09-22T15:15:18.359Z,10.95
2017-09-22T15:17:45.879Z,11.50
2017-09-22T15:20:13.418Z,10.35
2017-09-22T15:22:40.926Z,10.65
2017-09-22T15:25:09.483Z,10.20
2017-09-22T15:27:37.279Z,10.05
2017-09-22T15:30:05.606Z,10.13
2017-09-22T15:32:33.111Z,11.93
2017-09-22T15:35:01.394Z,11.43
2017-09-22T15:37:28.914Z,10.27
2017-09-22T15:39:56.450Z,10.80
2017-09-22T15:42:23.963Z,10.90
2017-09-22T15:44:51.522Z,10.30
2017-09-22T15:47:19.035Z,9.70
2017-09-22T15:49:46.572Z,9.98
2017-09-22T15:52:14.078Z,9.55
2017-09-22T15:54:41.613Z,9.60
2017-09-22T15:57:09.139Z,8.13
2017-09-22T15:59:36.662Z,9.38
2017-09-22T16:02:04.181Z,9.15
2017-09-22T16:04:31.695Z,9.23
2017-09-22T16:06:59.982Z,8.35
2017-09-22T16:09:28.252Z,9.63
2017-09-22T16:11:56.562Z,10.30
2017-09-22T16:14:24.066Z,9.80
2017-09-22T16:16:51.598Z,9.60
2017-09-22T16:19:19.108Z,8.98
2017-09-22T16:21:46.676Z,8.30
2017-09-22T16:24:14.962Z,8.75
2017-09-22T16:26:42.535Z,8.93
2017-09-22T16:29:10.042Z,9.07
2017-09-22T16:31:38.372Z,8.63
2017-09-22T16:34:05.879Z,9.43
2017-09-22T16:36:33.439Z,9.77
2017-09-22T16:39:01.740Z,13.02
2017-09-22T16:41:30.041Z,9.18
2017-09-22T16:43:57.554Z,16.40
2017-09-22T16:46:25.083Z,12.43
2017-09-22T16:48:52.634Z,8.55
2017-09-22T16:51:20.186Z,8.98
2017-09-22T16:53:47.726Z,9.25
2017-09-22T16:56:15.256Z,9.50
2017-09-22T16:58:42.783Z,9.35
2017-09-22T17:01:10.291Z,9.35
2017-09-22T17:03:38.602Z,8.63
2017-09-22T17:06:06.214Z,7.90
2017-09-22T17:08:33.754Z,8.05
2017-09-22T17:11:01.279Z,11.73
2017-09-22T17:13:28.802Z,9.02
2017-09-22T17:15:56.309Z,9.02
2017-09-22T17:18:23.834Z,10.23
2017-09-22T17:20:51.354Z,10.30
2017-09-22T17:23:18.891Z,11.85
2017-09-22T17:25:46.410Z,10.63
2017-09-22T17:28:13.941Z,10.70
2017-09-22T17:30:42.247Z,11.20
2017-09-22T17:33:10.550Z,14.98
2017-09-22T17:35:38.050Z,12.20
2017-09-22T17:38:05.612Z,12.07
2017-09-22T17:40:33.131Z,13.68
2017-09-22T17:43:00.663Z,11.82
2017-09-22T17:45:28.187Z,13.40
2017-09-22T17:47:55.735Z,12.32
2017-09-22T17:50:23.256Z,14.32
2017-09-22T17:52:50.763Z,12.27
2017-09-22T17:55:18.292Z,11.88
2017-09-22T17:57:45.802Z,11.02
2017-09-22T18:00:14.114Z,12.63
2017-09-22T18:02:41.624Z,19.60
2017-09-22T18:05:09.152Z,16.15
2017-09-22T18:07:36.658Z,16.20
2017-09-22T18:10:04.947Z,14.50
2017-09-22T18:12:33.268Z,14.87
2017-09-22T18:15:00.818Z,17.15
2017-09-22T18:17:28.338Z,13.35
2017-09-22T18:19:56.626Z,15.30
2017-09-22T18:22:24.147Z,18.67
2017-09-22T18:24:51.675Z,17.42
2017-09-22T18:27:19.190Z,16.98
2017-09-22T18:29:47.479Z,18.85
2017-09-22T18:32:15.750Z,17.30
2017-09-22T18:34:43.280Z,17.83
2017-09-22T18:37:10.786Z,21.30
2017-09-22T18:39:38.314Z,19.05
2017-09-22T18:42:06.600Z,22.55
2017-09-22T18:44:34.889Z,22.05
2017-09-22T18:47:02.412Z,22.77
2017-09-22T18:49:29.986Z,24.10
2017-09-22T18:51:58.266Z,24.77
2017-09-22T18:54:26.541Z,24.63
2017-09-22T18:56:54.123Z,22.37
2017-09-22T18:59:21.640Z,19.75
2017-09-22T19:01:49.173Z,19.20
2017-09-22T19:04:16.691Z,20.52
2017-09-22T19:06:44.993Z,19.70
2017-09-22T19:09:12.497Z,20.12
2017-09-22T19:11:40.057Z,19.65
2017-09-22T19:14:07.571Z,23.40
2017-09-22T19:16:35.110Z,21.02
2017-09-22T19:19:02.640Z,19.77
2017-09-22T19:21:30.174Z,21.90
2017-09-22T19:23:57.678Z,24.00
2017-09-22T19:26:25.967Z,20.90
2017-09-22T19:28:54.238Z,21.83
2017-09-22T19:31:22.532Z,22.45
2017-09-22T19:33:50.084Z,22.73
2017-09-22T19:36:17.626Z,19.40
2017-09-22T19:38:45.902Z,20.75
2017-09-22T19:41:13.469Z,17.65
2017-09-22T19:43:41.743Z,16.77
2017-09-22T19:46:10.047Z,15.65
2017-09-22T19:48:37.545Z,16.67
2017-09-22T19:51:05.095Z,18.02
2017-09-22T19:53:32.667Z,18.08
2017-09-22T19:56:00.186Z,17.55
2017-09-22T19:58:27.722Z,20.30
2017-09-22T20:00:56.036Z,21.70
2017-09-22T20:03:23.576Z,20.27
2017-09-22T20:05:51.111Z,22.40
2017-09-22T20:08:19.401Z,20.42
2017-09-22T20:10:47.670Z,22.35
2017-09-22T20:13:15.971Z,21.65
2017-09-22T20:15:43.519Z,25.00
2017-09-22T20:18:11.818Z,23.80
2017-09-22T20:20:39.325Z,21.77
2017-09-22T20:23:06.862Z,19.98
2017-09-22T20:25:34.489Z,19.23
2017-09-22T20:28:02.058Z,20.55
2017-09-22T20:30:29.575Z,17.90
2017-09-22T20:32:57.884Z,20.65
2017-09-22T20:35:25.386Z,18.02
2017-09-22T20:37:52.910Z,18.80
2017-09-22T20:40:21.220Z,17.27
2017-09-22T20:42:48.749Z,15.10
2017-09-22T20:45:16.272Z,15.20
2017-09-22T20:47:44.544Z,14.55
2017-09-22T20:50:14.164Z,16.40
2017-09-22T20:52:42.474Z,12.25
2017-09-22T20:55:10.015Z,13.50
2017-09-22T20:57:37.531Z,12.70
2017-09-22T21:00:05.063Z,11.57
2017-09-22T21:02:34.215Z,12.65
2017-09-22T21:05:01.970Z,11.55
2017-09-22T21:07:30.249Z,13.52
2017-09-22T21:09:58.549Z,14.20
2017-09-22T21:12:26.065Z,17.87
2017-09-22T21:14:53.595Z,13.38
2017-09-22T21:17:21.106Z,13.65
2017-09-22T21:19:49.395Z,13.77
2017-09-22T21:22:17.670Z,13.32
2017-09-22T21:24:46.013Z,12.35
2017-09-22T21:27:13.523Z,13.25
2017-09-22T21:29:41.049Z,13.13
2017-09-22T21:32:08.554Z,13.15
2017-09-22T21:34:36.864Z,11.95
2017-09-22T21:37:04.378Z,13.70
2017-09-22T21:39:31.903Z,13.75
2017-09-22T21:42:00.177Z,12.98
2017-09-22T21:44:27.718Z,12.65
2017-09-22T21:46:55.227Z,13.20
2017-09-22T21:49:22.754Z,13.25
2017-09-22T21:51:50.282Z,13.30
2017-09-22T21:54:17.778Z,13.27
2017-09-22T21:56:45.302Z,11.88
2017-09-22T21:59:12.820Z,11.55
2017-09-22T22:01:40.410Z,12.68
2017-09-22T22:04:25.621Z,12.73
2017-09-22T22:06:58.723Z,11.38
2017-09-22T22:09:26.998Z,11.82
2017-09-22T22:11:55.299Z,12.18
2017-09-22T22:14:22.806Z,13.38
2017-09-22T22:16:50.326Z,12.95
2017-09-22T22:19:17.846Z,11.80
2017-09-22T22:21:45.375Z,11.60
2017-09-22T22:24:12.883Z,11.82
2017-09-22T22:26:41.177Z,12.75
2017-09-22T22:29:08.679Z,10.95
2017-09-22T22:31:36.199Z,11.35
2017-09-22T22:34:03.710Z,11.70
2017-09-22T22:36:31.235Z,11.73
2017-09-22T22:38:58.734Z,11.55
2017-09-22T22:41:26.250Z,10.45
2017-09-22T22:43:53.745Z,10.55
2017-09-22T22:46:21.282Z,10.50
2017-09-22T22:48:48.790Z,11.10
2017-09-22T22:51:17.094Z,10.00
2017-09-22T22:53:44.589Z,9.23
2017-09-22T22:56:12.099Z,9.85
2017-09-22T22:58:39.625Z,10.18
2017-09-22T23:01:07.130Z,10.88
2017-09-22T23:03:34.650Z,10.00
2017-09-22T23:06:02.931Z,11.80
2017-09-22T23:08:31.214Z,10.45
2017-09-22T23:10:59.475Z,10.10
2017-09-22T23:13:27.003Z,10.35
2017-09-22T23:15:54.519Z,10.02
2017-09-22T23:18:22.064Z,9.98
2017-09-22T23:20:50.330Z,9.48
2017-09-22T23:23:17.861Z,9.18
2017-09-22T23:25:45.361Z,9.07
2017-09-22T23:28:13.638Z,9.88
2017-09-22T23:30:41.907Z,10.27
2017-09-22T23:33:10.210Z,8.27
2017-09-22T23:35:37.710Z,10.02
2017-09-22T23:38:06.288Z,10.32
2017-09-22T23:40:33.795Z,9.45
2017-09-22T23:43:02.089Z,10.70
2017-09-22T23:45:29.593Z,8.90
2017-09-22T23:47:57.120Z,9.60
2017-09-22T23:50:24.630Z,9.20
2017-09-22T23:52:52.157Z,10.15
2017-09-22T23:55:19.650Z,8.80
2017-09-22T23:57:47.158Z,8.85
